sensor_id;sensor_type;location;lat;lon;timestamp;P1;durP1;ratioP1;P2;durP2;ratioP2
15679;SDS011;15488;48.114;11.532;2023-11-19T00:00:06;1.30;;;1.00;;
15679;SDS011;15488;48.114;11.532;2023-11-19T00:02:38;1.37;;;1.00;;
15679;SDS011;15488;48.114;11.532;2023-11-19T00:05:07;1.17;;;0.97;;
15679;SDS011;15488;48.114;11.532;2023-11-19T00:07:36;1.10;;;1.00;;
15679;SDS011;15488;48.114;11.532;2023-11-19T00:10:06;1.00;;;0.90;;
15679;SDS011;15488;48.114;11.532;2023-11-19T00:12:35;1.37;;;0.97;;
15679;SDS011;15488;48.114;11.532;2023-11-19T00:15:03;0.77;;;0.70;;
15679;SDS011;15488;48.114;11.532;2023-11-19T00:17:36;1.00;;;0.90;;
15679;SDS011;15488;48.114;11.532;2023-11-19T00:20:06;1.67;;;0.97;;
15679;SDS011;15488;48.114;11.532;2023-11-19T00:22:34;1.83;;;1.00;;
15679;SDS011;15488;48.114;11.532;2023-11-19T00:25:03;1.27;;;1.00;;
15679;SDS011;15488;48.114;11.532;2023-11-19T00:27:31;1.63;;;1.17;;
15679;SDS011;15488;48.114;11.532;2023-11-19T00:29:59;1.80;;;1.37;;
15679;SDS011;15488;48.114;11.532;2023-11-19T00:32:30;1.57;;;1.27;;
15679;SDS011;15488;48.114;11.532;2023-11-19T00:34:59;1.80;;;1.40;;
15679;SDS011;15488;48.114;11.532;2023-11-19T00:37:27;4.50;;;2.30;;
15679;SDS011;15488;48.114;11.532;2023-11-19T00:39:55;2.10;;;1.47;;
15679;SDS011;15488;48.114;11.532;2023-11-19T00:42:23;1.17;;;0.93;;
15679;SDS011;15488;48.114;11.532;2023-11-19T00:44:50;6.17;;;2.97;;
15679;SDS011;15488;48.114;11.532;2023-11-19T00:47:18;4.57;;;2.40;;
15679;SDS011;15488;48.114;11.532;2023-11-19T00:49:46;3.80;;;2.20;;
15679;SDS011;15488;48.114;11.532;2023-11-19T00:52:16;8.37;;;3.60;;
15679;SDS011;15488;48.114;11.532;2023-11-19T00:54:44;7.97;;;4.93;;
15679;SDS011;15488;48.114;11.532;2023-11-19T00:57:12;4.13;;;2.70;;
15679;SDS011;15488;48.114;11.532;2023-11-19T00:59:41;2.07;;;1.30;;
15679;SDS011;15488;48.114;11.532;2023-11-19T01:02:08;0.97;;;0.80;;
15679;SDS011;15488;48.114;11.532;2023-11-19T01:04:36;1.87;;;0.80;;
15679;SDS011;15488;48.114;11.532;2023-11-19T01:07:04;0.97;;;0.80;;
15679;SDS011;15488;48.114;11.532;2023-11-19T01:09:33;1.10;;;0.80;;
15679;SDS011;15488;48.114;11.532;2023-11-19T01:12:00;1.07;;;0.90;;
15679;SDS011;15488;48.114;11.532;2023-11-19T01:14:28;8.57;;;4.03;;
15679;SDS011;15488;48.114;11.532;2023-11-19T01:16:56;7.73;;;4.63;;
15679;SDS011;15488;48.114;11.532;2023-11-19T01:19:24;3.07;;;1.90;;
15679;SDS011;15488;48.114;11.532;2023-11-19T01:21:51;1.60;;;1.20;;
15679;SDS011;15488;48.114;11.532;2023-11-19T01:24:19;1.37;;;0.97;;
15679;SDS011;15488;48.114;11.532;2023-11-19T01:26:48;1.07;;;0.97;;
15679;SDS011;15488;48.114;11.532;2023-11-19T01:29:15;0.90;;;0.80;;
15679;SDS011;15488;48.114;11.532;2023-11-19T01:31:43;0.90;;;0.80;;
15679;SDS011;15488;48.114;11.532;2023-11-19T01:34:12;0.80;;;0.80;;
15679;SDS011;15488;48.114;11.532;2023-11-19T01:36:40;1.00;;;0.80;;
15679;SDS011;15488;48.114;11.532;2023-11-19T01:39:07;1.20;;;0.80;;
15679;SDS011;15488;48.114;11.532;2023-11-19T01:41:35;1.00;;;0.80;;
15679;SDS011;15488;48.114;11.532;2023-11-19T01:44:05;1.07;;;0.90;;
15679;SDS011;15488;48.114;11.532;2023-11-19T01:46:33;1.17;;;0.90;;
15679;SDS011;15488;48.114;11.532;2023-11-19T01:49:01;0.90;;;0.80;;
15679;SDS011;15488;48.114;11.532;2023-11-19T01:51:30;1.33;;;0.80;;
15679;SDS011;15488;48.114;11.532;2023-11-19T01:53:59;1.33;;;0.73;;
15679;SDS011;15488;48.114;11.532;2023-11-19T01:56:28;1.17;;;0.73;;
15679;SDS011;15488;48.114;11.532;2023-11-19T01:58:56;0.70;;;0.70;;
15679;SDS011;15488;48.114;11.532;2023-11-19T02:01:25;1.53;;;1.07;;
15679;SDS011;15488;48.114;11.532;2023-11-19T02:03:54;1.10;;;0.83;;
15679;SDS011;15488;48.114;11.532;2023-11-19T02:06:23;0.97;;;0.80;;
15679;SDS011;15488;48.114;11.532;2023-11-19T02:08:52;1.10;;;1.00;;
15679;SDS011;15488;48.114;11.532;2023-11-19T02:11:19;1.30;;;0.83;;
15679;SDS011;15488;48.114;11.532;2023-11-19T02:13:47;1.17;;;0.57;;
15679;SDS011;15488;48.114;11.532;2023-11-19T02:16:14;0.70;;;0.53;;
15679;SDS011;15488;48.114;11.532;2023-11-19T02:18:43;1.30;;;0.70;;
15679;SDS011;15488;48.114;11.532;2023-11-19T02:21:10;1.40;;;0.90;;
15679;SDS011;15488;48.114;11.532;2023-11-19T02:23:40;0.90;;;0.60;;
15679;SDS011;15488;48.114;11.532;2023-11-19T02:26:12;1.07;;;0.40;;
15679;SDS011;15488;48.114;11.532;2023-11-19T02:28:45;0.77;;;0.60;;
15679;SDS011;15488;48.114;11.532;2023-11-19T02:31:13;0.73;;;0.40;;
15679;SDS011;15488;48.114;11.532;2023-11-19T02:33:41;0.70;;;0.50;;
15679;SDS011;15488;48.114;11.532;2023-11-19T02:36:09;0.37;;;0.30;;
15679;SDS011;15488;48.114;11.532;2023-11-19T02:38:36;0.70;;;0.40;;
15679;SDS011;15488;48.114;11.532;2023-11-19T02:41:04;0.70;;;0.40;;
15679;SDS011;15488;48.114;11.532;2023-11-19T02:43:32;0.57;;;0.30;;
15679;SDS011;15488;48.114;11.532;2023-11-19T02:46:02;0.60;;;0.40;;
15679;SDS011;15488;48.114;11.532;2023-11-19T02:48:32;0.80;;;0.30;;
15679;SDS011;15488;48.114;11.532;2023-11-19T02:51:00;0.57;;;0.23;;
15679;SDS011;15488;48.114;11.532;2023-11-19T02:53:28;1.17;;;0.30;;
15679;SDS011;15488;48.114;11.532;2023-11-19T02:55:56;0.50;;;0.20;;
15679;SDS011;15488;48.114;11.532;2023-11-19T02:58:27;0.40;;;0.30;;
15679;SDS011;15488;48.114;11.532;2023-11-19T03:00:54;0.60;;;0.20;;
15679;SDS011;15488;48.114;11.532;2023-11-19T03:03:26;0.67;;;0.20;;
15679;SDS011;15488;48.114;11.532;2023-11-19T03:05:56;0.87;;;0.30;;
15679;SDS011;15488;48.114;11.532;2023-11-19T03:08:23;0.40;;;0.30;;
15679;SDS011;15488;48.114;11.532;2023-11-19T03:10:51;0.30;;;0.23;;
15679;SDS011;15488;48.114;11.532;2023-11-19T03:13:19;0.30;;;0.20;;
15679;SDS011;15488;48.114;11.532;2023-11-19T03:15:47;0.30;;;0.30;;
15679;SDS011;15488;48.114;11.532;2023-11-19T03:18:14;0.60;;;0.27;;
15679;SDS011;15488;48.114;11.532;2023-11-19T03:20:43;0.40;;;0.17;;
15679;SDS011;15488;48.114;11.532;2023-11-19T03:23:12;0.20;;;0.20;;
15679;SDS011;15488;48.114;11.532;2023-11-19T03:25:39;0.33;;;0.30;;
15679;SDS011;15488;48.114;11.532;2023-11-19T03:28:07;0.27;;;0.20;;
15679;SDS011;15488;48.114;11.532;2023-11-19T03:30:36;0.20;;;0.20;;
15679;SDS011;15488;48.114;11.532;2023-11-19T03:33:04;0.63;;;0.30;;
15679;SDS011;15488;48.114;11.532;2023-11-19T03:35:32;0.30;;;0.20;;
15679;SDS011;15488;48.114;11.532;2023-11-19T03:38:01;0.23;;;0.20;;
15679;SDS011;15488;48.114;11.532;2023-11-19T03:40:28;0.20;;;0.20;;
15679;SDS011;15488;48.114;11.532;2023-11-19T03:42:56;0.40;;;0.20;;
15679;SDS011;15488;48.114;11.532;2023-11-19T03:45:24;0.60;;;0.20;;
15679;SDS011;15488;48.114;11.532;2023-11-19T03:47:51;0.20;;;0.17;;
15679;SDS011;15488;48.114;11.532;2023-11-19T03:50:19;0.20;;;0.10;;
15679;SDS011;15488;48.114;11.532;2023-11-19T03:52:46;1.33;;;0.23;;
15679;SDS011;15488;48.114;11.532;2023-11-19T03:55:15;0.70;;;0.30;;
15679;SDS011;15488;48.114;11.532;2023-11-19T03:57:43;0.30;;;0.20;;
15679;SDS011;15488;48.114;11.532;2023-11-19T04:00:12;0.30;;;0.20;;
15679;SDS011;15488;48.114;11.532;2023-11-19T04:02:40;0.20;;;0.20;;
15679;SDS011;15488;48.114;11.532;2023-11-19T04:05:10;0.30;;;0.20;;
15679;SDS011;15488;48.114;11.532;2023-11-19T04:07:38;0.57;;;0.27;;
15679;SDS011;15488;48.114;11.532;2023-11-19T04:10:06;0.63;;;0.20;;
15679;SDS011;15488;48.114;11.532;2023-11-19T04:12:35;0.90;;;0.20;;
15679;SDS011;15488;48.114;11.532;2023-11-19T04:15:03;0.20;;;0.20;;
15679;SDS011;15488;48.114;11.532;2023-11-19T04:17:31;0.40;;;0.20;;
15679;SDS011;15488;48.114;11.532;2023-11-19T04:19:59;0.13;;;0.10;;
15679;SDS011;15488;48.114;11.532;2023-11-19T04:22:26;0.83;;;0.30;;
15679;SDS011;15488;48.114;11.532;2023-11-19T04:24:54;0.20;;;0.10;;
15679;SDS011;15488;48.114;11.532;2023-11-19T04:27:21;0.20;;;0.10;;
15679;SDS011;15488;48.114;11.532;2023-11-19T04:29:50;0.50;;;0.20;;
15679;SDS011;15488;48.114;11.532;2023-11-19T04:32:17;0.80;;;0.20;;
15679;SDS011;15488;48.114;11.532;2023-11-19T04:34:46;0.50;;;0.20;;
15679;SDS011;15488;48.114;11.532;2023-11-19T04:37:13;0.40;;;0.10;;
15679;SDS011;15488;48.114;11.532;2023-11-19T04:39:40;0.20;;;0.10;;
15679;SDS011;15488;48.114;11.532;2023-11-19T04:42:10;0.33;;;0.20;;
15679;SDS011;15488;48.114;11.532;2023-11-19T04:44:37;0.20;;;0.13;;
15679;SDS011;15488;48.114;11.532;2023-11-19T04:47:06;0.10;;;0.10;;
15679;SDS011;15488;48.114;11.532;2023-11-19T04:49:39;0.27;;;0.10;;
15679;SDS011;15488;48.114;11.532;2023-11-19T04:52:08;0.73;;;0.23;;
15679;SDS011;15488;48.114;11.532;2023-11-19T04:54:40;0.63;;;0.20;;
15679;SDS011;15488;48.114;11.532;2023-11-19T04:57:08;0.20;;;0.10;;
15679;SDS011;15488;48.114;11.532;2023-11-19T04:59:37;0.30;;;0.20;;
15679;SDS011;15488;48.114;11.532;2023-11-19T05:02:04;0.20;;;0.17;;
15679;SDS011;15488;48.114;11.532;2023-11-19T05:04:34;0.17;;;0.10;;
15679;SDS011;15488;48.114;11.532;2023-11-19T05:07:02;0.80;;;0.20;;
15679;SDS011;15488;48.114;11.532;2023-11-19T05:09:30;0.20;;;0.20;;
15679;SDS011;15488;48.114;11.532;2023-11-19T05:11:58;0.20;;;0.20;;
15679;SDS011;15488;48.114;11.532;2023-11-19T05:14:26;0.17;;;0.13;;
15679;SDS011;15488;48.114;11.532;2023-11-19T05:16:54;0.30;;;0.27;;
15679;SDS011;15488;48.114;11.532;2023-11-19T05:19:23;0.83;;;0.20;;
15679;SDS011;15488;48.114;11.532;2023-11-19T05:21:50;0.20;;;0.20;;
15679;SDS011;15488;48.114;11.532;2023-11-19T05:24:18;0.60;;;0.20;;
15679;SDS011;15488;48.114;11.532;2023-11-19T05:26:45;0.70;;;0.30;;
15679;SDS011;15488;48.114;11.532;2023-11-19T05:29:13;0.30;;;0.27;;
15679;SDS011;15488;48.114;11.532;2023-11-19T05:31:40;0.20;;;0.20;;
15679;SDS011;15488;48.114;11.532;2023-11-19T05:34:08;0.23;;;0.20;;
15679;SDS011;15488;48.114;11.532;2023-11-19T05:36:36;0.20;;;0.20;;
15679;SDS011;15488;48.114;11.532;2023-11-19T05:39:04;0.20;;;0.20;;
15679;SDS011;15488;48.114;11.532;2023-11-19T05:41:32;0.73;;;0.20;;
15679;SDS011;15488;48.114;11.532;2023-11-19T05:43:59;0.20;;;0.20;;
15679;SDS011;15488;48.114;11.532;2023-11-19T05:46:27;0.20;;;0.20;;
15679;SDS011;15488;48.114;11.532;2023-11-19T05:48:54;2.73;;;0.40;;
15679;SDS011;15488;48.114;11.532;2023-11-19T05:51:21;0.53;;;0.30;;
15679;SDS011;15488;48.114;11.532;2023-11-19T05:53:51;0.30;;;0.20;;
15679;SDS011;15488;48.114;11.532;2023-11-19T05:56:20;1.93;;;0.40;;
15679;SDS011;15488;48.114;11.532;2023-11-19T05:58:48;0.47;;;0.30;;
15679;SDS011;15488;48.114;11.532;2023-11-19T06:01:15;0.40;;;0.13;;
15679;SDS011;15488;48.114;11.532;2023-11-19T06:03:43;0.60;;;0.30;;
15679;SDS011;15488;48.114;11.532;2023-11-19T06:06:14;0.23;;;0.20;;
15679;SDS011;15488;48.114;11.532;2023-11-19T06:08:42;0.20;;;0.20;;
15679;SDS011;15488;48.114;11.532;2023-11-19T06:11:11;0.20;;;0.20;;
15679;SDS011;15488;48.114;11.532;2023-11-19T06:13:43;0.20;;;0.20;;
15679;SDS011;15488;48.114;11.532;2023-11-19T06:16:11;1.53;;;0.20;;
15679;SDS011;15488;48.114;11.532;2023-11-19T06:18:38;0.20;;;0.20;;
15679;SDS011;15488;48.114;11.532;2023-11-19T06:21:06;0.20;;;0.10;;
15679;SDS011;15488;48.114;11.532;2023-11-19T06:23:34;0.23;;;0.23;;
15679;SDS011;15488;48.114;11.532;2023-11-19T06:26:02;0.20;;;0.20;;
15679;SDS011;15488;48.114;11.532;2023-11-19T06:28:31;0.33;;;0.20;;
15679;SDS011;15488;48.114;11.532;2023-11-19T06:30:59;0.20;;;0.20;;
15679;SDS011;15488;48.114;11.532;2023-11-19T06:33:26;0.20;;;0.20;;
15679;SDS011;15488;48.114;11.532;2023-11-19T06:35:54;0.33;;;0.10;;
15679;SDS011;15488;48.114;11.532;2023-11-19T06:38:21;0.30;;;0.20;;
15679;SDS011;15488;48.114;11.532;2023-11-19T06:40:49;0.40;;;0.20;;
15679;SDS011;15488;48.114;11.532;2023-11-19T06:43:16;0.43;;;0.20;;
15679;SDS011;15488;48.114;11.532;2023-11-19T06:45:45;0.30;;;0.20;;
15679;SDS011;15488;48.114;11.532;2023-11-19T06:48:12;0.40;;;0.20;;
15679;SDS011;15488;48.114;11.532;2023-11-19T06:50:40;1.07;;;0.30;;
15679;SDS011;15488;48.114;11.532;2023-11-19T06:53:08;0.27;;;0.20;;
15679;SDS011;15488;48.114;11.532;2023-11-19T06:55:36;0.20;;;0.20;;
15679;SDS011;15488;48.114;11.532;2023-11-19T06:58:05;0.20;;;0.20;;
15679;SDS011;15488;48.114;11.532;2023-11-19T07:00:32;0.33;;;0.20;;
15679;SDS011;15488;48.114;11.532;2023-11-19T07:03:02;0.37;;;0.20;;
15679;SDS011;15488;48.114;11.532;2023-11-19T07:05:31;0.20;;;0.20;;
15679;SDS011;15488;48.114;11.532;2023-11-19T07:07:59;0.20;;;0.20;;
15679;SDS011;15488;48.114;11.532;2023-11-19T07:10:26;0.33;;;0.20;;
15679;SDS011;15488;48.114;11.532;2023-11-19T07:12:55;0.30;;;0.20;;
15679;SDS011;15488;48.114;11.532;2023-11-19T07:15:22;0.30;;;0.10;;
15679;SDS011;15488;48.114;11.532;2023-11-19T07:17:50;0.20;;;0.10;;
15679;SDS011;15488;48.114;11.532;2023-11-19T07:20:20;0.10;;;0.00;;
15679;SDS011;15488;48.114;11.532;2023-11-19T07:22:48;0.00;;;0.00;;
15679;SDS011;15488;48.114;11.532;2023-11-19T07:25:15;0.37;;;0.10;;
15679;SDS011;15488;48.114;11.532;2023-11-19T07:27:43;0.10;;;0.10;;
15679;SDS011;15488;48.114;11.532;2023-11-19T07:30:12;0.20;;;0.10;;
15679;SDS011;15488;48.114;11.532;2023-11-19T07:32:40;0.10;;;0.10;;
15679;SDS011;15488;48.114;11.532;2023-11-19T07:35:08;0.10;;;0.10;;
15679;SDS011;15488;48.114;11.532;2023-11-19T07:37:37;0.10;;;0.10;;
15679;SDS011;15488;48.114;11.532;2023-11-19T07:40:04;0.10;;;0.10;;
15679;SDS011;15488;48.114;11.532;2023-11-19T07:42:33;0.33;;;0.10;;
15679;SDS011;15488;48.114;11.532;2023-11-19T07:45:01;0.30;;;0.10;;
15679;SDS011;15488;48.114;11.532;2023-11-19T07:47:30;0.10;;;0.10;;
15679;SDS011;15488;48.114;11.532;2023-11-19T07:49:58;0.13;;;0.13;;
15679;SDS011;15488;48.114;11.532;2023-11-19T07:52:25;0.20;;;0.13;;
15679;SDS011;15488;48.114;11.532;2023-11-19T07:54:55;0.27;;;0.20;;
15679;SDS011;15488;48.114;11.532;2023-11-19T07:57:22;0.43;;;0.10;;
15679;SDS011;15488;48.114;11.532;2023-11-19T07:59:52;0.00;;;0.00;;
15679;SDS011;15488;48.114;11.532;2023-11-19T08:02:20;0.30;;;0.10;;
15679;SDS011;15488;48.114;11.532;2023-11-19T08:04:48;0.10;;;0.10;;
15679;SDS011;15488;48.114;11.532;2023-11-19T08:07:17;0.10;;;0.10;;
15679;SDS011;15488;48.114;11.532;2023-11-19T08:09:44;0.30;;;0.10;;
15679;SDS011;15488;48.114;11.532;2023-11-19T08:12:13;0.10;;;0.10;;
15679;SDS011;15488;48.114;11.532;2023-11-19T08:14:42;0.30;;;0.17;;
15679;SDS011;15488;48.114;11.532;2023-11-19T08:17:10;0.10;;;0.10;;
15679;SDS011;15488;48.114;11.532;2023-11-19T08:19:37;0.20;;;0.10;;
15679;SDS011;15488;48.114;11.532;2023-11-19T08:22:05;0.30;;;0.20;;
15679;SDS011;15488;48.114;11.532;2023-11-19T08:24:34;0.13;;;0.13;;
15679;SDS011;15488;48.114;11.532;2023-11-19T08:27:01;0.20;;;0.10;;
15679;SDS011;15488;48.114;11.532;2023-11-19T08:29:31;0.10;;;0.10;;
15679;SDS011;15488;48.114;11.532;2023-11-19T08:31:59;0.40;;;0.23;;
15679;SDS011;15488;48.114;11.532;2023-11-19T08:34:28;0.10;;;0.10;;
15679;SDS011;15488;48.114;11.532;2023-11-19T08:36:56;0.20;;;0.13;;
15679;SDS011;15488;48.114;11.532;2023-11-19T08:39:23;0.40;;;0.20;;
15679;SDS011;15488;48.114;11.532;2023-11-19T08:41:51;0.20;;;0.20;;
15679;SDS011;15488;48.114;11.532;2023-11-19T08:44:18;0.30;;;0.20;;
15679;SDS011;15488;48.114;11.532;2023-11-19T08:46:48;0.30;;;0.20;;
15679;SDS011;15488;48.114;11.532;2023-11-19T08:49:15;0.50;;;0.10;;
15679;SDS011;15488;48.114;11.532;2023-11-19T08:51:42;0.23;;;0.20;;
15679;SDS011;15488;48.114;11.532;2023-11-19T08:54:10;0.20;;;0.20;;
15679;SDS011;15488;48.114;11.532;2023-11-19T08:56:38;0.60;;;0.20;;
15679;SDS011;15488;48.114;11.532;2023-11-19T08:59:06;0.20;;;0.10;;
15679;SDS011;15488;48.114;11.532;2023-11-19T09:01:33;0.50;;;0.20;;
15679;SDS011;15488;48.114;11.532;2023-11-19T09:04:02;0.30;;;0.20;;
15679;SDS011;15488;48.114;11.532;2023-11-19T09:06:31;0.10;;;0.10;;
15679;SDS011;15488;48.114;11.532;2023-11-19T09:08:58;0.20;;;0.20;;
15679;SDS011;15488;48.114;11.532;2023-11-19T09:11:27;0.70;;;0.30;;
15679;SDS011;15488;48.114;11.532;2023-11-19T09:13:55;0.30;;;0.30;;
15679;SDS011;15488;48.114;11.532;2023-11-19T09:16:22;1.70;;;0.80;;
15679;SDS011;15488;48.114;11.532;2023-11-19T09:18:51;0.40;;;0.27;;
15679;SDS011;15488;48.114;11.532;2023-11-19T09:21:20;0.87;;;0.30;;
15679;SDS011;15488;48.114;11.532;2023-11-19T09:23:48;0.40;;;0.40;;
15679;SDS011;15488;48.114;11.532;2023-11-19T09:26:15;0.30;;;0.20;;
15679;SDS011;15488;48.114;11.532;2023-11-19T09:28:43;0.73;;;0.37;;
15679;SDS011;15488;48.114;11.532;2023-11-19T09:31:13;0.40;;;0.40;;
15679;SDS011;15488;48.114;11.532;2023-11-19T09:33:41;0.50;;;0.20;;
15679;SDS011;15488;48.114;11.532;2023-11-19T09:36:09;4.70;;;3.33;;
15679;SDS011;15488;48.114;11.532;2023-11-19T09:38:40;1.40;;;1.30;;
15679;SDS011;15488;48.114;11.532;2023-11-19T09:41:07;0.77;;;0.50;;
15679;SDS011;15488;48.114;11.532;2023-11-19T09:43:39;0.67;;;0.40;;
15679;SDS011;15488;48.114;11.532;2023-11-19T09:46:08;1.17;;;1.00;;
15679;SDS011;15488;48.114;11.532;2023-11-19T09:48:37;0.73;;;0.57;;
15679;SDS011;15488;48.114;11.532;2023-11-19T09:51:05;0.77;;;0.30;;
15679;SDS011;15488;48.114;11.532;2023-11-19T09:53:33;0.43;;;0.40;;
15679;SDS011;15488;48.114;11.532;2023-11-19T09:56:03;0.40;;;0.30;;
15679;SDS011;15488;48.114;11.532;2023-11-19T09:58:32;1.13;;;0.40;;
15679;SDS011;15488;48.114;11.532;2023-11-19T10:01:00;0.63;;;0.43;;
15679;SDS011;15488;48.114;11.532;2023-11-19T10:03:32;0.70;;;0.43;;
15679;SDS011;15488;48.114;11.532;2023-11-19T10:06:03;0.50;;;0.40;;
15679;SDS011;15488;48.114;11.532;2023-11-19T10:08:32;0.40;;;0.40;;
15679;SDS011;15488;48.114;11.532;2023-11-19T10:11:00;0.33;;;0.30;;
15679;SDS011;15488;48.114;11.532;2023-11-19T10:13:29;0.93;;;0.70;;
15679;SDS011;15488;48.114;11.532;2023-11-19T10:15:57;0.40;;;0.30;;
15679;SDS011;15488;48.114;11.532;2023-11-19T10:18:25;0.20;;;0.20;;
15679;SDS011;15488;48.114;11.532;2023-11-19T10:20:53;1.03;;;0.30;;
15679;SDS011;15488;48.114;11.532;2023-11-19T10:23:21;0.43;;;0.30;;
15679;SDS011;15488;48.114;11.532;2023-11-19T10:25:48;0.40;;;0.40;;
15679;SDS011;15488;48.114;11.532;2023-11-19T10:28:21;0.20;;;0.20;;
15679;SDS011;15488;48.114;11.532;2023-11-19T10:30:49;0.17;;;0.17;;
15679;SDS011;15488;48.114;11.532;2023-11-19T10:33:21;0.50;;;0.47;;
15679;SDS011;15488;48.114;11.532;2023-11-19T10:35:52;0.20;;;0.20;;
15679;SDS011;15488;48.114;11.532;2023-11-19T10:38:21;0.57;;;0.40;;
15679;SDS011;15488;48.114;11.532;2023-11-19T10:40:49;0.20;;;0.20;;
15679;SDS011;15488;48.114;11.532;2023-11-19T10:43:17;0.57;;;0.23;;
15679;SDS011;15488;48.114;11.532;2023-11-19T10:45:46;0.37;;;0.30;;
15679;SDS011;15488;48.114;11.532;2023-11-19T10:48:13;0.40;;;0.30;;
15679;SDS011;15488;48.114;11.532;2023-11-19T10:50:41;0.30;;;0.30;;
15679;SDS011;15488;48.114;11.532;2023-11-19T10:53:10;0.77;;;0.57;;
15679;SDS011;15488;48.114;11.532;2023-11-19T10:55:38;0.83;;;0.57;;
15679;SDS011;15488;48.114;11.532;2023-11-19T10:58:06;0.60;;;0.27;;
15679;SDS011;15488;48.114;11.532;2023-11-19T11:00:37;0.20;;;0.20;;
15679;SDS011;15488;48.114;11.532;2023-11-19T11:03:14;0.20;;;0.20;;
15679;SDS011;15488;48.114;11.532;2023-11-19T11:05:46;0.40;;;0.23;;
15679;SDS011;15488;48.114;11.532;2023-11-19T11:08:15;0.20;;;0.20;;
15679;SDS011;15488;48.114;11.532;2023-11-19T11:10:43;0.60;;;0.30;;
15679;SDS011;15488;48.114;11.532;2023-11-19T11:13:14;2.00;;;0.87;;
15679;SDS011;15488;48.114;11.532;2023-11-19T11:15:42;0.20;;;0.20;;
15679;SDS011;15488;48.114;11.532;2023-11-19T11:18:13;0.50;;;0.40;;
15679;SDS011;15488;48.114;11.532;2023-11-19T11:20:40;0.50;;;0.40;;
15679;SDS011;15488;48.114;11.532;2023-11-19T11:26:16;0.20;;;0.20;;
15679;SDS011;15488;48.114;11.532;2023-11-19T11:28:56;0.37;;;0.20;;
15679;SDS011;15488;48.114;11.532;2023-11-19T11:31:31;0.83;;;0.13;;
15679;SDS011;15488;48.114;11.532;2023-11-19T11:36:58;0.37;;;0.20;;
15679;SDS011;15488;48.114;11.532;2023-11-19T11:39:35;0.10;;;0.10;;
15679;SDS011;15488;48.114;11.532;2023-11-19T11:42:30;0.27;;;0.20;;
15679;SDS011;15488;48.114;11.532;2023-11-19T11:45:02;0.23;;;0.20;;
15679;SDS011;15488;48.114;11.532;2023-11-19T11:50:48;0.20;;;0.13;;
15679;SDS011;15488;48.114;11.532;2023-11-19T11:53:21;0.20;;;0.20;;
15679;SDS011;15488;48.114;11.532;2023-11-19T11:55:56;0.20;;;0.20;;
15679;SDS011;15488;48.114;11.532;2023-11-19T11:58:26;0.30;;;0.30;;
15679;SDS011;15488;48.114;11.532;2023-11-19T12:01:07;0.27;;;0.27;;
15679;SDS011;15488;48.114;11.532;2023-11-19T12:03:45;0.30;;;0.20;;
15679;SDS011;15488;48.114;11.532;2023-11-19T12:06:14;0.20;;;0.20;;
15679;SDS011;15488;48.114;11.532;2023-11-19T12:08:42;1.20;;;0.40;;
15679;SDS011;15488;48.114;11.532;2023-11-19T12:11:09;0.20;;;0.20;;
15679;SDS011;15488;48.114;11.532;2023-11-19T12:13:47;0.77;;;0.60;;
15679;SDS011;15488;48.114;11.532;2023-11-19T12:16:23;0.40;;;0.30;;
15679;SDS011;15488;48.114;11.532;2023-11-19T12:18:52;0.40;;;0.20;;
15679;SDS011;15488;48.114;11.532;2023-11-19T12:21:31;0.40;;;0.30;;
15679;SDS011;15488;48.114;11.532;2023-11-19T12:23:59;1.13;;;0.27;;
15679;SDS011;15488;48.114;11.532;2023-11-19T12:26:36;0.50;;;0.40;;
15679;SDS011;15488;48.114;11.532;2023-11-19T12:29:04;0.37;;;0.37;;
15679;SDS011;15488;48.114;11.532;2023-11-19T12:31:33;0.83;;;0.30;;
15679;SDS011;15488;48.114;11.532;2023-11-19T12:34:06;0.40;;;0.30;;
15679;SDS011;15488;48.114;11.532;2023-11-19T12:36:39;0.47;;;0.20;;
15679;SDS011;15488;48.114;11.532;2023-11-19T12:39:07;0.20;;;0.20;;
15679;SDS011;15488;48.114;11.532;2023-11-19T12:41:50;1.20;;;0.43;;
15679;SDS011;15488;48.114;11.532;2023-11-19T12:44:22;0.20;;;0.20;;
15679;SDS011;15488;48.114;11.532;2023-11-19T12:46:59;0.20;;;0.20;;
15679;SDS011;15488;48.114;11.532;2023-11-19T12:49:27;0.73;;;0.40;;
15679;SDS011;15488;48.114;11.532;2023-11-19T12:51:56;0.50;;;0.30;;
15679;SDS011;15488;48.114;11.532;2023-11-19T12:54:34;1.13;;;0.30;;
15679;SDS011;15488;48.114;11.532;2023-11-19T12:57:02;0.90;;;0.40;;
15679;SDS011;15488;48.114;11.532;2023-11-19T12:59:30;0.23;;;0.20;;
15679;SDS011;15488;48.114;11.532;2023-11-19T13:01:58;0.60;;;0.30;;
15679;SDS011;15488;48.114;11.532;2023-11-19T13:04:27;0.40;;;0.33;;
15679;SDS011;15488;48.114;11.532;2023-11-19T13:06:58;0.40;;;0.20;;
15679;SDS011;15488;48.114;11.532;2023-11-19T13:09:26;1.70;;;0.40;;
15679;SDS011;15488;48.114;11.532;2023-11-19T13:11:54;0.80;;;0.30;;
15679;SDS011;15488;48.114;11.532;2023-11-19T13:14:22;0.30;;;0.30;;
15679;SDS011;15488;48.114;11.532;2023-11-19T13:16:49;1.17;;;0.40;;
15679;SDS011;15488;48.114;11.532;2023-11-19T13:19:19;0.53;;;0.20;;
15679;SDS011;15488;48.114;11.532;2023-11-19T13:21:48;0.37;;;0.20;;
15679;SDS011;15488;48.114;11.532;2023-11-19T13:24:17;0.43;;;0.30;;
15679;SDS011;15488;48.114;11.532;2023-11-19T13:26:44;0.57;;;0.50;;
15679;SDS011;15488;48.114;11.532;2023-11-19T13:29:12;0.20;;;0.20;;
15679;SDS011;15488;48.114;11.532;2023-11-19T13:31:39;0.30;;;0.30;;
15679;SDS011;15488;48.114;11.532;2023-11-19T13:34:07;0.40;;;0.40;;
15679;SDS011;15488;48.114;11.532;2023-11-19T13:36:35;0.33;;;0.33;;
15679;SDS011;15488;48.114;11.532;2023-11-19T13:39:02;0.30;;;0.30;;
15679;SDS011;15488;48.114;11.532;2023-11-19T13:41:31;0.30;;;0.20;;
15679;SDS011;15488;48.114;11.532;2023-11-19T13:43:59;0.33;;;0.23;;
15679;SDS011;15488;48.114;11.532;2023-11-19T13:46:26;0.47;;;0.40;;
15679;SDS011;15488;48.114;11.532;2023-11-19T13:48:53;0.97;;;0.40;;
15679;SDS011;15488;48.114;11.532;2023-11-19T13:51:21;0.50;;;0.40;;
15679;SDS011;15488;48.114;11.532;2023-11-19T13:53:49;0.87;;;0.40;;
15679;SDS011;15488;48.114;11.532;2023-11-19T13:56:16;1.90;;;0.43;;
15679;SDS011;15488;48.114;11.532;2023-11-19T13:58:45;0.40;;;0.40;;
15679;SDS011;15488;48.114;11.532;2023-11-19T14:01:13;0.70;;;0.40;;
15679;SDS011;15488;48.114;11.532;2023-11-19T14:03:40;0.50;;;0.30;;
15679;SDS011;15488;48.114;11.532;2023-11-19T14:06:08;0.70;;;0.53;;
15679;SDS011;15488;48.114;11.532;2023-11-19T14:08:35;0.40;;;0.40;;
15679;SDS011;15488;48.114;11.532;2023-11-19T14:11:03;1.40;;;0.67;;
15679;SDS011;15488;48.114;11.532;2023-11-19T14:13:31;1.10;;;0.60;;
15679;SDS011;15488;48.114;11.532;2023-11-19T14:16:01;0.63;;;0.50;;
15679;SDS011;15488;48.114;11.532;2023-11-19T14:18:30;0.73;;;0.40;;
15679;SDS011;15488;48.114;11.532;2023-11-19T14:21:00;0.30;;;0.30;;
15679;SDS011;15488;48.114;11.532;2023-11-19T14:23:28;0.50;;;0.30;;
15679;SDS011;15488;48.114;11.532;2023-11-19T14:25:56;1.37;;;0.77;;
15679;SDS011;15488;48.114;11.532;2023-11-19T14:28:23;0.60;;;0.50;;
15679;SDS011;15488;48.114;11.532;2023-11-19T14:30:52;0.50;;;0.40;;
15679;SDS011;15488;48.114;11.532;2023-11-19T14:33:23;0.47;;;0.30;;
15679;SDS011;15488;48.114;11.532;2023-11-19T14:35:51;0.60;;;0.50;;
15679;SDS011;15488;48.114;11.532;2023-11-19T14:38:18;0.30;;;0.30;;
15679;SDS011;15488;48.114;11.532;2023-11-19T14:40:46;0.60;;;0.50;;
15679;SDS011;15488;48.114;11.532;2023-11-19T14:43:14;0.30;;;0.30;;
15679;SDS011;15488;48.114;11.532;2023-11-19T14:45:41;0.53;;;0.53;;
15679;SDS011;15488;48.114;11.532;2023-11-19T14:48:09;0.90;;;0.50;;
15679;SDS011;15488;48.114;11.532;2023-11-19T14:50:37;0.80;;;0.40;;